Archival Weather

Tokyo Intl

Tokyo, Japan (RJTT)

Report from: Saturday, March 18, 2023 7:30 PM JST
Current time: Monday, June 17, 2024 6:36 PM JST

Current weather – Weather history – Daily summaries
Weather forecast

Temperature9.0°C (48.2°F)
Wind chill6.3°C (43.3°F)
Dew point7.0°C (44.6°F)
Winds 10 kts (5.1 m/s, 11.5 mph) North (10°)
Visibility6.2 mi. (10 km)
Clouds Few clouds 1,000 ft. (305 m)
Ceiling: Broken clouds 6,000 ft. (1,829 m)
Altimeter29.83 in.Hg (1010 mB)
Relative humidity87 %
Density altitude-464 ft. (-142 m)
Remarks No significant changes expected in the next two hours
Flight conditions Visual Meteorological Conditions
Raw dataRJTT 181030Z 01010KT 9999 FEW010 BKN060 09/07 Q1010 NOSIG RMK 1CU010 7SC060 A2984
An error has occurred. This application may no longer respond until reloaded. Reload 🗙